createdAt,value
2023-04-03T00:05:30.843Z,56.29
2023-04-03T00:15:36.830Z,56.77
2023-04-03T00:25:42.182Z,56.30
2023-04-03T00:35:47.509Z,56.17
2023-04-03T00:45:52.917Z,56.59
2023-04-03T00:55:58.332Z,56.32
2023-04-03T01:06:03.516Z,56.58
2023-04-03T01:16:09.104Z,56.71
2023-04-03T01:26:14.536Z,56.19
2023-04-03T01:36:19.632Z,56.32
2023-04-03T01:46:24.806Z,56.26
2023-04-03T01:56:30.628Z,56.18
2023-04-03T02:06:35.938Z,56.34
2023-04-03T02:16:41.544Z,56.01
2023-04-03T02:26:47.015Z,56.07
2023-04-03T02:36:52.185Z,55.98
2023-04-03T02:46:57.580Z,56.05
2023-04-03T02:57:02.842Z,56.07
2023-04-03T03:07:08.675Z,55.82
2023-04-03T03:17:13.675Z,56.01
2023-04-03T03:27:18.846Z,55.90
2023-04-03T03:37:24.119Z,55.57
2023-04-03T03:47:29.653Z,55.61
2023-04-03T03:57:35.725Z,55.71
2023-04-03T04:07:41.275Z,55.65
2023-04-03T04:17:46.808Z,55.51
2023-04-03T04:27:52.403Z,55.42
2023-04-03T04:37:57.230Z,55.28
2023-04-03T04:48:02.422Z,55.18
2023-04-03T04:58:07.815Z,55.29
2023-04-03T05:08:13.512Z,55.41
2023-04-03T05:18:18.615Z,55.18
2023-04-03T05:28:24.139Z,54.99
2023-04-03T05:38:29.646Z,54.87
2023-04-03T05:48:35.154Z,55.00
2023-04-03T05:58:40.440Z,54.42
2023-04-03T06:08:45.615Z,54.10
2023-04-03T06:18:50.361Z,54.22
2023-04-03T06:28:55.718Z,53.93
2023-04-03T06:39:01.229Z,53.84
2023-04-03T06:49:06.517Z,53.93
2023-04-03T06:59:12.089Z,54.36
2023-04-03T07:09:17.367Z,54.01
2023-04-03T07:19:22.770Z,53.73
2023-04-03T07:29:28.160Z,53.54
2023-04-03T07:39:33.432Z,53.44
2023-04-03T07:49:38.891Z,52.87
2023-04-03T07:59:44.323Z,52.44
2023-04-03T08:09:50.011Z,51.88
2023-04-03T08:19:55.496Z,51.75
2023-04-03T08:30:00.978Z,51.74
2023-04-03T08:40:06.692Z,51.71
2023-04-03T08:50:11.639Z,51.62
2023-04-03T09:00:17.138Z,51.90
2023-04-03T09:10:22.434Z,52.00
2023-04-03T09:20:27.799Z,52.03
2023-04-03T09:30:33.147Z,51.64
2023-04-03T09:40:38.620Z,51.36
2023-04-03T09:50:44.274Z,51.34
2023-04-03T10:00:50.049Z,51.38
2023-04-03T10:10:56.000Z,51.49
2023-04-03T10:21:01.373Z,51.58
2023-04-03T10:31:06.577Z,51.52
2023-04-03T10:41:12.320Z,51.63
2023-04-03T10:51:17.980Z,51.62
2023-04-03T11:01:23.431Z,51.68
2023-04-03T11:11:28.587Z,51.52
2023-04-03T11:21:34.227Z,51.48
2023-04-03T11:31:39.476Z,51.53
2023-04-03T11:41:45.039Z,51.47
2023-04-03T11:51:50.405Z,51.46
2023-04-03T12:01:56.462Z,51.55
2023-04-03T12:12:01.993Z,51.57
2023-04-03T12:22:07.415Z,51.45
2023-04-03T12:32:13.139Z,51.41
2023-04-03T12:42:18.405Z,51.45
2023-04-03T12:52:23.677Z,51.48
2023-04-03T13:02:29.063Z,51.39
2023-04-03T13:12:34.798Z,51.38
2023-04-03T13:22:40.533Z,51.28
2023-04-03T13:32:46.138Z,51.34
2023-04-03T13:42:51.409Z,54.33
2023-04-03T13:52:56.478Z,50.77
2023-04-03T14:03:01.739Z,50.81
2023-04-03T14:13:07.304Z,51.12
2023-04-03T14:23:13.475Z,51.13
2023-04-03T14:33:19.165Z,51.18
2023-04-03T14:43:24.739Z,50.84
2023-04-03T14:53:38.400Z,50.71
2023-04-03T15:03:40.721Z,50.62
2023-04-03T15:13:45.644Z,50.60
2023-04-03T15:23:50.611Z,50.65
2023-04-03T15:33:56.165Z,50.59
2023-04-03T15:44:01.331Z,50.82
2023-04-03T15:54:06.828Z,50.93
2023-04-03T16:04:12.047Z,50.85
2023-04-03T16:14:18.719Z,50.95
2023-04-03T16:24:24.795Z,50.81
2023-04-03T16:34:30.046Z,50.44
2023-04-03T16:44:35.448Z,50.29
2023-04-03T16:54:40.983Z,50.34
2023-04-03T17:04:46.729Z,50.18
2023-04-03T17:14:52.940Z,50.24
2023-04-03T17:24:58.675Z,45.11
2023-04-03T17:35:03.942Z,47.23
2023-04-03T17:45:09.750Z,48.61
2023-04-03T17:55:15.047Z,49.80
2023-04-03T18:05:20.446Z,50.52
2023-04-03T18:15:26.158Z,50.80
2023-04-03T18:35:38.925Z,50.96
2023-04-03T18:45:44.311Z,50.76
2023-04-03T18:55:49.436Z,50.62
2023-04-03T19:05:54.632Z,50.30
2023-04-03T19:16:00.311Z,51.30
2023-04-03T19:26:05.668Z,51.59
2023-04-03T19:36:10.968Z,51.66
2023-04-03T19:46:16.322Z,51.81
2023-04-03T19:56:21.772Z,51.69
2023-04-03T20:06:26.951Z,51.70
2023-04-03T20:16:32.512Z,50.82
2023-04-03T20:26:38.153Z,51.10
2023-04-03T20:36:43.224Z,51.76
2023-04-03T20:46:53.357Z,51.55
2023-04-03T20:56:58.642Z,50.73
2023-04-03T21:07:04.033Z,51.31
2023-04-03T21:17:09.267Z,51.30
2023-04-03T21:27:14.563Z,51.36
2023-04-03T21:37:19.821Z,51.43
2023-04-03T21:47:25.109Z,51.06
2023-04-03T21:58:50.174Z,50.95
2023-04-03T22:08:55.035Z,50.81
2023-04-03T22:19:00.250Z,51.36
2023-04-03T22:29:05.895Z,51.19
2023-04-03T22:39:11.476Z,50.98
2023-04-03T22:49:17.145Z,51.00
2023-04-03T22:59:22.089Z,50.44
2023-04-03T23:09:27.137Z,50.41
2023-04-03T23:19:32.683Z,50.92
2023-04-03T23:29:38.074Z,51.19
2023-04-03T23:39:43.824Z,51.02
2023-04-03T23:49:49.406Z,50.84
2023-04-03T23:59:55.111Z,50.78
